createdAt,value
2023-06-09T00:00:04.004Z,16.79
2023-06-09T00:04:14.792Z,16.74
2023-06-09T00:08:22.736Z,16.70
2023-06-09T00:12:30.652Z,16.59
2023-06-09T00:16:38.965Z,16.51
2023-06-09T00:20:48.043Z,16.41
2023-06-09T00:24:55.771Z,16.33
2023-06-09T00:29:05.046Z,16.30
2023-06-09T00:33:13.993Z,16.28
2023-06-09T00:37:22.102Z,16.26
2023-06-09T00:41:30.015Z,16.22
2023-06-09T00:45:37.632Z,16.14
2023-06-09T00:49:46.044Z,16.06
2023-06-09T00:53:54.951Z,15.95
2023-06-09T00:58:03.505Z,15.86
2023-06-09T01:02:13.870Z,15.82
2023-06-09T01:06:28.365Z,15.76
2023-06-09T01:10:43.829Z,15.70
2023-06-09T01:14:55.974Z,15.64
2023-06-09T01:19:12.641Z,15.57
2023-06-09T01:23:28.465Z,15.52
2023-06-09T01:27:38.542Z,15.50
2023-06-09T01:31:46.173Z,15.46
2023-06-09T01:35:54.859Z,15.40
2023-06-09T01:40:03.892Z,15.33
2023-06-09T01:44:12.272Z,15.26
2023-06-09T01:48:26.638Z,15.23
2023-06-09T01:52:39.789Z,15.18
2023-06-09T01:56:49.372Z,15.16
2023-06-09T02:00:59.955Z,15.11
2023-06-09T02:05:11.464Z,15.07
2023-06-09T02:09:19.982Z,14.99
2023-06-09T02:13:28.198Z,14.93
2023-06-09T02:17:35.656Z,14.87
2023-06-09T02:21:43.687Z,14.85
2023-06-09T02:25:51.661Z,14.78
2023-06-09T02:30:00.420Z,14.72
2023-06-09T02:34:09.069Z,14.69
2023-06-09T02:38:17.233Z,14.68
2023-06-09T02:42:24.869Z,14.69
2023-06-09T02:46:35.043Z,14.66
2023-06-09T02:50:43.415Z,14.61
2023-06-09T02:54:51.048Z,14.56
2023-06-09T02:58:58.814Z,14.50
2023-06-09T03:03:08.656Z,14.41
2023-06-09T03:07:17.631Z,14.31
2023-06-09T03:11:25.836Z,14.22
2023-06-09T03:15:33.446Z,14.18
2023-06-09T03:19:43.468Z,14.11
2023-06-09T03:23:51.201Z,14.07
2023-06-09T03:27:59.156Z,14.10
2023-06-09T03:32:07.858Z,14.19
2023-06-09T03:36:16.127Z,14.27
2023-06-09T03:40:24.302Z,14.32
2023-06-09T03:44:32.955Z,14.38
2023-06-09T03:48:40.541Z,14.39
2023-06-09T03:52:48.339Z,14.44
2023-06-09T03:56:56.448Z,14.53
2023-06-09T04:01:04.317Z,14.64
2023-06-09T04:05:12.373Z,14.75
2023-06-09T04:09:20.420Z,14.86
2023-06-09T04:13:28.290Z,14.98
2023-06-09T04:21:48.331Z,15.26
2023-06-09T04:25:55.977Z,15.40
2023-06-09T04:30:06.524Z,15.55
2023-06-09T04:34:17.458Z,15.73
2023-06-09T04:38:25.371Z,15.93
2023-06-09T04:42:33.124Z,16.06
2023-06-09T04:46:43.595Z,16.17
2023-06-09T04:50:58.366Z,16.29
2023-06-09T04:55:10.173Z,16.38
2023-06-09T04:59:22.587Z,16.50
2023-06-09T05:03:38.090Z,16.61
2023-06-09T05:07:53.471Z,16.67
2023-06-09T05:12:04.800Z,16.77
2023-06-09T05:16:22.720Z,16.88
2023-06-09T05:20:33.195Z,16.97
2023-06-09T05:24:43.386Z,17.00
2023-06-09T05:28:54.649Z,17.07
2023-06-09T05:33:11.842Z,17.17
2023-06-09T05:37:22.853Z,17.27
2023-06-09T05:41:37.237Z,17.36
2023-06-09T05:45:48.259Z,17.43
2023-06-09T05:49:55.961Z,17.49
2023-06-09T05:54:23.227Z,17.58
2023-06-09T05:58:34.936Z,17.68
2023-06-09T06:02:46.495Z,17.77
2023-06-09T06:06:54.335Z,17.85
2023-06-09T06:11:02.333Z,17.92
2023-06-09T06:15:14.569Z,17.96
2023-06-09T06:19:24.558Z,18.00
2023-06-09T06:23:35.071Z,18.01
2023-06-09T06:27:48.379Z,18.09
2023-06-09T06:31:58.836Z,18.16
2023-06-09T06:36:13.255Z,18.17
2023-06-09T06:40:33.389Z,18.18
2023-06-09T06:44:45.550Z,18.20
2023-06-09T06:48:53.107Z,18.29
2023-06-09T06:53:02.671Z,18.41
2023-06-09T06:57:11.799Z,18.58
2023-06-09T07:01:27.389Z,18.70
2023-06-09T07:05:37.847Z,18.78
2023-06-09T07:09:47.922Z,18.76
2023-06-09T07:14:01.738Z,18.76
2023-06-09T07:18:16.137Z,18.79
2023-06-09T07:22:35.197Z,18.86
2023-06-09T07:26:45.646Z,18.97
2023-06-09T07:31:05.129Z,19.06
2023-06-09T07:35:22.486Z,19.12
2023-06-09T07:39:37.711Z,19.23
2023-06-09T07:43:48.889Z,19.31
2023-06-09T07:48:00.506Z,19.37
2023-06-09T07:52:23.901Z,19.41
2023-06-09T07:56:39.476Z,19.47
2023-06-09T08:00:47.105Z,19.49
2023-06-09T08:04:56.273Z,19.49
2023-06-09T08:09:10.101Z,19.52
2023-06-09T08:13:25.362Z,19.55
2023-06-09T08:17:34.751Z,19.56
2023-06-09T08:21:46.747Z,19.62
2023-06-09T08:25:56.702Z,19.62
2023-06-09T08:30:05.977Z,19.69
2023-06-09T08:34:18.697Z,19.78
2023-06-09T08:38:29.037Z,19.87
2023-06-09T08:42:46.685Z,19.95
2023-06-09T08:46:59.615Z,20.02
2023-06-09T08:51:12.216Z,20.07
2023-06-09T08:55:25.451Z,20.11
2023-06-09T08:59:44.891Z,20.15
2023-06-09T09:04:08.285Z,20.22
2023-06-09T09:08:21.637Z,20.31
2023-06-09T09:12:49.121Z,20.40
2023-06-09T09:16:56.701Z,20.51
2023-06-09T09:21:04.886Z,20.62
2023-06-09T09:25:13.122Z,20.72
2023-06-09T09:29:23.027Z,20.81
2023-06-09T09:33:32.362Z,20.88
2023-06-09T09:37:40.509Z,20.95
2023-06-09T09:42:06.581Z,20.98
2023-06-09T09:46:14.595Z,20.99
2023-06-09T09:50:27.260Z,21.01
2023-06-09T09:54:34.820Z,21.05
2023-06-09T09:58:46.261Z,21.13
2023-06-09T10:02:57.644Z,21.19
2023-06-09T10:07:08.370Z,21.24
2023-06-09T10:11:16.870Z,21.31
2023-06-09T10:15:26.123Z,21.40
2023-06-09T10:19:33.788Z,21.48
2023-06-09T10:23:42.556Z,21.53
2023-06-09T10:27:50.980Z,21.61
2023-06-09T10:32:00.596Z,21.70
2023-06-09T10:36:11.379Z,21.82
2023-06-09T10:40:31.089Z,22.00
2023-06-09T10:44:47.781Z,22.23
2023-06-09T10:49:00.839Z,22.66
2023-06-09T10:53:18.318Z,23.02
2023-06-09T10:57:48.423Z,23.21
2023-06-09T11:02:25.823Z,23.40
2023-06-09T11:06:33.752Z,23.69
2023-06-09T11:10:45.559Z,23.99
2023-06-09T11:14:58.095Z,24.33
2023-06-09T11:19:27.263Z,24.53
2023-06-09T11:23:36.472Z,24.58
2023-06-09T11:27:44.943Z,24.86
2023-06-09T11:31:56.623Z,24.91
2023-06-09T11:36:08.155Z,24.80
2023-06-09T11:40:17.696Z,24.61
2023-06-09T11:44:37.517Z,24.27
2023-06-09T11:49:04.644Z,23.92
2023-06-09T11:53:13.108Z,23.24
2023-06-09T11:57:20.450Z,22.21
2023-06-09T12:01:33.764Z,21.52
2023-06-09T12:05:42.686Z,21.01
2023-06-09T12:09:58.623Z,20.69
2023-06-09T12:14:11.745Z,20.45
2023-06-09T12:18:19.241Z,20.36
2023-06-09T12:22:27.024Z,20.32
2023-06-09T12:26:43.621Z,20.33
2023-06-09T12:30:55.181Z,20.35
2023-06-09T12:35:07.384Z,20.36
2023-06-09T12:39:22.473Z,20.37
2023-06-09T12:43:44.121Z,20.40
2023-06-09T12:47:53.903Z,20.48
2023-06-09T12:52:02.766Z,20.58
2023-06-09T12:56:11.198Z,20.68
2023-06-09T13:00:23.133Z,20.76
2023-06-09T13:04:31.898Z,20.91
2023-06-09T13:08:39.580Z,21.07
2023-06-09T13:12:52.021Z,21.15
2023-06-09T13:16:59.587Z,21.20
2023-06-09T13:21:07.784Z,21.27
2023-06-09T13:25:16.151Z,21.32
2023-06-09T13:29:23.759Z,21.40
2023-06-09T13:33:31.771Z,21.49
2023-06-09T13:37:40.332Z,21.58
2023-06-09T13:41:51.028Z,21.63
2023-06-09T13:45:58.381Z,21.73
2023-06-09T13:50:06.870Z,21.91
2023-06-09T13:54:15.181Z,22.13
2023-06-09T13:58:23.100Z,22.30
2023-06-09T14:02:32.754Z,22.49
2023-06-09T14:06:43.313Z,22.64
2023-06-09T14:10:51.271Z,22.74
2023-06-09T14:15:02.521Z,22.81
2023-06-09T14:19:10.672Z,22.87
2023-06-09T14:23:18.859Z,22.96
2023-06-09T14:27:27.172Z,23.04
2023-06-09T14:31:35.129Z,23.10
2023-06-09T14:35:45.182Z,23.20
2023-06-09T14:39:53.318Z,23.29
2023-06-09T14:44:00.892Z,23.38
2023-06-09T14:48:10.667Z,23.42
2023-06-09T14:52:18.497Z,23.46
2023-06-09T14:56:27.396Z,23.51
2023-06-09T15:00:36.291Z,23.54
2023-06-09T15:04:44.595Z,23.57
2023-06-09T15:08:53.597Z,23.50
2023-06-09T15:13:01.845Z,23.43
2023-06-09T15:17:10.786Z,23.36
2023-06-09T15:21:18.627Z,23.28
2023-06-09T15:25:30.401Z,23.18
2023-06-09T15:29:38.561Z,23.14
2023-06-09T15:33:47.450Z,23.13
2023-06-09T15:37:56.208Z,23.10
2023-06-09T15:42:04.240Z,23.09
2023-06-09T15:46:11.941Z,23.08
2023-06-09T15:50:20.246Z,23.05
2023-06-09T15:54:29.100Z,23.07
2023-06-09T15:58:37.282Z,23.09
2023-06-09T16:02:45.134Z,23.11
2023-06-09T16:06:52.838Z,23.12
2023-06-09T16:11:00.465Z,23.13
2023-06-09T16:15:12.235Z,23.13
2023-06-09T16:19:22.727Z,23.15
2023-06-09T16:23:31.959Z,23.18
2023-06-09T16:27:39.617Z,23.25
2023-06-09T16:31:47.340Z,23.36
2023-06-09T16:35:54.977Z,23.37
2023-06-09T16:40:03.807Z,23.38
2023-06-09T16:44:13.227Z,23.36
2023-06-09T16:48:21.961Z,23.31
2023-06-09T16:52:30.981Z,23.27
2023-06-09T16:56:38.665Z,23.21
2023-06-09T17:00:49.052Z,23.17
2023-06-09T17:04:57.021Z,23.14
2023-06-09T17:09:04.496Z,23.09
2023-06-09T17:13:12.585Z,23.01
2023-06-09T17:17:20.277Z,22.89
2023-06-09T17:21:28.119Z,22.81
2023-06-09T17:25:36.040Z,22.71
2023-06-09T17:29:45.695Z,22.56
2023-06-09T17:33:54.149Z,22.29
2023-06-09T17:38:02.377Z,21.99
2023-06-09T17:42:11.938Z,21.69
2023-06-09T17:46:19.958Z,21.31
2023-06-09T17:50:29.345Z,20.92
2023-06-09T17:54:38.147Z,20.55
2023-06-09T17:58:46.385Z,20.21
2023-06-09T18:02:55.452Z,19.93
2023-06-09T18:07:04.679Z,19.76
2023-06-09T18:11:12.554Z,19.63
2023-06-09T18:15:21.167Z,19.51
2023-06-09T18:19:30.426Z,19.35
2023-06-09T18:23:38.066Z,19.18
2023-06-09T18:27:46.395Z,19.04
2023-06-09T18:31:55.018Z,18.92
2023-06-09T18:36:07.680Z,18.87
2023-06-09T18:40:16.613Z,18.89
2023-06-09T18:44:25.306Z,18.90
2023-06-09T18:48:38.875Z,18.79
2023-06-09T18:52:50.031Z,18.72
2023-06-09T18:56:57.725Z,18.73
2023-06-09T19:01:05.460Z,18.81
2023-06-09T19:05:14.325Z,18.89
2023-06-09T19:09:21.973Z,18.94
2023-06-09T19:13:30.764Z,18.97
2023-06-09T19:17:40.426Z,18.96
2023-06-09T19:21:50.198Z,18.98
2023-06-09T19:25:58.088Z,18.98
2023-06-09T19:30:06.097Z,18.82
2023-06-09T19:34:13.620Z,18.49
2023-06-09T19:38:21.885Z,18.21
2023-06-09T19:42:29.824Z,18.14
2023-06-09T19:46:38.012Z,18.18
2023-06-09T19:50:46.643Z,18.28
2023-06-09T19:54:54.335Z,18.35
2023-06-09T19:59:07.100Z,18.33
2023-06-09T20:03:14.622Z,18.25
2023-06-09T20:07:22.450Z,18.12
2023-06-09T20:11:31.319Z,18.01
2023-06-09T20:15:39.627Z,18.00
2023-06-09T20:19:48.080Z,18.03
2023-06-09T20:23:55.942Z,18.10
2023-06-09T20:28:04.871Z,18.10
2023-06-09T20:32:12.560Z,18.03
2023-06-09T20:36:20.084Z,18.01
2023-06-09T20:40:27.790Z,18.00
2023-06-09T20:44:36.114Z,18.04
2023-06-09T20:48:44.220Z,18.06
2023-06-09T20:52:51.930Z,17.97
2023-06-09T20:56:59.519Z,17.85
2023-06-09T21:01:15.239Z,17.78
2023-06-09T21:05:23.217Z,17.78
2023-06-09T21:09:30.586Z,17.76
2023-06-09T21:13:38.553Z,17.71
2023-06-09T21:17:46.398Z,17.68
2023-06-09T21:21:54.272Z,17.69
2023-06-09T21:26:02.239Z,17.69
2023-06-09T21:30:12.967Z,17.70
2023-06-09T21:34:21.395Z,17.71
2023-06-09T21:38:32.256Z,17.68
2023-06-09T21:42:41.992Z,17.59
2023-06-09T21:46:49.972Z,17.51
2023-06-09T21:50:57.342Z,17.39
2023-06-09T21:55:06.457Z,17.23
2023-06-09T21:59:14.493Z,17.09
2023-06-09T22:03:22.333Z,17.01
2023-06-09T22:07:32.426Z,16.92
2023-06-09T22:11:40.460Z,16.93
2023-06-09T22:15:49.591Z,16.95
2023-06-09T22:19:57.279Z,16.95
2023-06-09T22:24:05.397Z,16.93
2023-06-09T22:28:13.454Z,16.84
2023-06-09T22:32:23.602Z,16.77
2023-06-09T22:36:32.043Z,16.73
2023-06-09T22:40:39.679Z,16.69
2023-06-09T22:44:48.991Z,16.65
2023-06-09T22:49:03.607Z,16.61
2023-06-09T22:53:14.185Z,16.53
2023-06-09T22:57:27.343Z,16.47
2023-06-09T23:01:35.105Z,16.44
2023-06-09T23:05:46.746Z,16.44
2023-06-09T23:09:54.943Z,16.39
2023-06-09T23:14:06.362Z,16.34
2023-06-09T23:18:15.725Z,16.25
2023-06-09T23:22:23.471Z,16.18
2023-06-09T23:26:33.007Z,16.13
2023-06-09T23:30:40.227Z,16.04
2023-06-09T23:34:49.484Z,16.03
2023-06-09T23:38:58.844Z,16.03
2023-06-09T23:43:06.514Z,16.01
2023-06-09T23:47:14.424Z,15.97
2023-06-09T23:51:22.233Z,15.97
2023-06-09T23:55:29.804Z,15.94
2023-06-09T23:59:37.593Z,15.85
